sensor_id;sensor_type;location;lat;lon;timestamp;P1;durP1;ratioP1;P2;durP2;ratioP2
68438;SDS011;55421;51.600;5.718;2024-03-02T00:01:22;2.40;;;1.20;;
68438;SDS011;55421;51.600;5.718;2024-03-02T00:03:49;2.60;;;1.20;;
68438;SDS011;55421;51.600;5.718;2024-03-02T00:06:20;3.90;;;1.30;;
68438;SDS011;55421;51.600;5.718;2024-03-02T00:08:47;1.10;;;1.00;;
68438;SDS011;55421;51.600;5.718;2024-03-02T00:11:14;2.60;;;1.30;;
68438;SDS011;55421;51.600;5.718;2024-03-02T00:13:42;1.80;;;1.30;;
68438;SDS011;55421;51.600;5.718;2024-03-02T00:16:08;4.50;;;1.40;;
68438;SDS011;55421;51.600;5.718;2024-03-02T00:18:35;1.60;;;1.10;;
68438;SDS011;55421;51.600;5.718;2024-03-02T00:21:03;3.90;;;1.40;;
68438;SDS011;55421;51.600;5.718;2024-03-02T00:23:33;2.70;;;1.20;;
68438;SDS011;55421;51.600;5.718;2024-03-02T00:26:01;1.80;;;1.20;;
68438;SDS011;55421;51.600;5.718;2024-03-02T00:28:34;1.70;;;1.10;;
68438;SDS011;55421;51.600;5.718;2024-03-02T00:31:06;2.50;;;1.20;;
68438;SDS011;55421;51.600;5.718;2024-03-02T00:33:36;2.50;;;1.10;;
68438;SDS011;55421;51.600;5.718;2024-03-02T00:36:12;3.30;;;1.70;;
68438;SDS011;55421;51.600;5.718;2024-03-02T00:38:47;2.00;;;1.10;;
68438;SDS011;55421;51.600;5.718;2024-03-02T00:41:25;2.70;;;1.10;;
68438;SDS011;55421;51.600;5.718;2024-03-02T00:43:58;2.20;;;1.00;;
68438;SDS011;55421;51.600;5.718;2024-03-02T00:46:40;0.90;;;0.80;;
68438;SDS011;55421;51.600;5.718;2024-03-02T00:49:18;0.60;;;0.60;;
68438;SDS011;55421;51.600;5.718;2024-03-02T00:51:47;0.50;;;0.50;;
68438;SDS011;55421;51.600;5.718;2024-03-02T00:54:22;1.60;;;0.40;;
68438;SDS011;55421;51.600;5.718;2024-03-02T00:56:54;0.60;;;0.30;;
68438;SDS011;55421;51.600;5.718;2024-03-02T00:59:23;0.40;;;0.40;;
68438;SDS011;55421;51.600;5.718;2024-03-02T01:01:49;1.30;;;0.30;;
68438;SDS011;55421;51.600;5.718;2024-03-02T01:04:16;0.50;;;0.40;;
68438;SDS011;55421;51.600;5.718;2024-03-02T01:06:43;0.40;;;0.20;;
68438;SDS011;55421;51.600;5.718;2024-03-02T01:09:10;0.20;;;0.20;;
68438;SDS011;55421;51.600;5.718;2024-03-02T01:11:38;0.30;;;0.30;;
68438;SDS011;55421;51.600;5.718;2024-03-02T01:14:05;0.20;;;0.20;;
68438;SDS011;55421;51.600;5.718;2024-03-02T01:16:32;0.80;;;0.60;;
68438;SDS011;55421;51.600;5.718;2024-03-02T01:18:58;0.30;;;0.30;;
68438;SDS011;55421;51.600;5.718;2024-03-02T01:21:25;0.80;;;0.20;;
68438;SDS011;55421;51.600;5.718;2024-03-02T01:23:51;0.30;;;0.30;;
68438;SDS011;55421;51.600;5.718;2024-03-02T01:26:18;0.20;;;0.20;;
68438;SDS011;55421;51.600;5.718;2024-03-02T01:28:44;0.30;;;0.30;;
68438;SDS011;55421;51.600;5.718;2024-03-02T01:31:11;0.30;;;0.10;;
68438;SDS011;55421;51.600;5.718;2024-03-02T01:33:37;0.20;;;0.20;;
68438;SDS011;55421;51.600;5.718;2024-03-02T01:36:04;0.60;;;0.20;;
68438;SDS011;55421;51.600;5.718;2024-03-02T01:38:30;0.40;;;0.30;;
68438;SDS011;55421;51.600;5.718;2024-03-02T01:40:57;0.60;;;0.40;;
68438;SDS011;55421;51.600;5.718;2024-03-02T01:43:24;1.70;;;0.30;;
68438;SDS011;55421;51.600;5.718;2024-03-02T01:45:52;0.40;;;0.30;;
68438;SDS011;55421;51.600;5.718;2024-03-02T01:48:19;0.90;;;0.30;;
68438;SDS011;55421;51.600;5.718;2024-03-02T01:50:45;0.70;;;0.50;;
68438;SDS011;55421;51.600;5.718;2024-03-02T01:53:12;0.40;;;0.40;;
68438;SDS011;55421;51.600;5.718;2024-03-02T01:55:38;0.30;;;0.20;;
68438;SDS011;55421;51.600;5.718;2024-03-02T01:58:05;2.10;;;0.20;;
68438;SDS011;55421;51.600;5.718;2024-03-02T02:00:31;0.40;;;0.30;;
68438;SDS011;55421;51.600;5.718;2024-03-02T02:02:58;0.30;;;0.20;;
68438;SDS011;55421;51.600;5.718;2024-03-02T02:05:25;1.80;;;0.30;;
68438;SDS011;55421;51.600;5.718;2024-03-02T02:07:51;0.60;;;0.30;;
68438;SDS011;55421;51.600;5.718;2024-03-02T02:10:18;0.20;;;0.20;;
68438;SDS011;55421;51.600;5.718;2024-03-02T02:12:44;0.80;;;0.30;;
68438;SDS011;55421;51.600;5.718;2024-03-02T02:15:30;0.30;;;0.30;;
68438;SDS011;55421;51.600;5.718;2024-03-02T02:17:58;0.30;;;0.30;;
68438;SDS011;55421;51.600;5.718;2024-03-02T02:20:25;0.30;;;0.20;;
68438;SDS011;55421;51.600;5.718;2024-03-02T02:22:57;0.20;;;0.20;;
68438;SDS011;55421;51.600;5.718;2024-03-02T02:25:25;0.30;;;0.30;;
68438;SDS011;55421;51.600;5.718;2024-03-02T02:27:53;0.20;;;0.20;;
68438;SDS011;55421;51.600;5.718;2024-03-02T02:30:21;0.20;;;0.20;;
68438;SDS011;55421;51.600;5.718;2024-03-02T02:32:49;1.20;;;0.40;;
68438;SDS011;55421;51.600;5.718;2024-03-02T02:35:15;0.60;;;0.50;;
68438;SDS011;55421;51.600;5.718;2024-03-02T02:37:42;0.30;;;0.30;;
68438;SDS011;55421;51.600;5.718;2024-03-02T02:40:10;1.80;;;0.30;;
68438;SDS011;55421;51.600;5.718;2024-03-02T02:42:37;0.30;;;0.30;;
68438;SDS011;55421;51.600;5.718;2024-03-02T02:45:04;0.30;;;0.30;;
68438;SDS011;55421;51.600;5.718;2024-03-02T02:47:31;0.30;;;0.30;;
68438;SDS011;55421;51.600;5.718;2024-03-02T02:49:59;0.30;;;0.30;;
68438;SDS011;55421;51.600;5.718;2024-03-02T02:52:31;0.30;;;0.20;;
68438;SDS011;55421;51.600;5.718;2024-03-02T02:54:59;0.30;;;0.20;;
68438;SDS011;55421;51.600;5.718;2024-03-02T02:57:25;0.30;;;0.30;;
68438;SDS011;55421;51.600;5.718;2024-03-02T02:59:52;0.60;;;0.50;;
68438;SDS011;55421;51.600;5.718;2024-03-02T03:02:18;0.40;;;0.40;;
68438;SDS011;55421;51.600;5.718;2024-03-02T03:04:45;0.70;;;0.50;;
68438;SDS011;55421;51.600;5.718;2024-03-02T03:07:11;0.30;;;0.20;;
68438;SDS011;55421;51.600;5.718;2024-03-02T03:09:38;0.40;;;0.40;;
68438;SDS011;55421;51.600;5.718;2024-03-02T03:12:07;1.40;;;0.30;;
68438;SDS011;55421;51.600;5.718;2024-03-02T03:14:34;0.40;;;0.40;;
68438;SDS011;55421;51.600;5.718;2024-03-02T03:17:00;2.00;;;0.60;;
68438;SDS011;55421;51.600;5.718;2024-03-02T03:19:27;0.40;;;0.40;;
68438;SDS011;55421;51.600;5.718;2024-03-02T03:21:53;0.40;;;0.40;;
68438;SDS011;55421;51.600;5.718;2024-03-02T03:24:20;0.40;;;0.40;;
68438;SDS011;55421;51.600;5.718;2024-03-02T03:26:46;1.30;;;0.40;;
68438;SDS011;55421;51.600;5.718;2024-03-02T03:29:13;0.80;;;0.60;;
68438;SDS011;55421;51.600;5.718;2024-03-02T03:31:39;0.40;;;0.40;;
68438;SDS011;55421;51.600;5.718;2024-03-02T03:34:06;0.10;;;0.10;;
68438;SDS011;55421;51.600;5.718;2024-03-02T03:36:32;0.30;;;0.30;;
68438;SDS011;55421;51.600;5.718;2024-03-02T03:38:59;0.40;;;0.40;;
68438;SDS011;55421;51.600;5.718;2024-03-02T03:41:25;0.40;;;0.40;;
68438;SDS011;55421;51.600;5.718;2024-03-02T03:43:51;1.20;;;0.30;;
68438;SDS011;55421;51.600;5.718;2024-03-02T03:46:18;1.70;;;0.40;;
68438;SDS011;55421;51.600;5.718;2024-03-02T03:48:44;0.50;;;0.50;;
68438;SDS011;55421;51.600;5.718;2024-03-02T03:51:11;0.50;;;0.30;;
68438;SDS011;55421;51.600;5.718;2024-03-02T03:53:37;1.60;;;0.50;;
68438;SDS011;55421;51.600;5.718;2024-03-02T03:56:04;0.50;;;0.30;;
68438;SDS011;55421;51.600;5.718;2024-03-02T03:58:31;0.40;;;0.40;;
68438;SDS011;55421;51.600;5.718;2024-03-02T04:00:58;0.60;;;0.40;;
68438;SDS011;55421;51.600;5.718;2024-03-02T04:03:24;0.90;;;0.50;;
68438;SDS011;55421;51.600;5.718;2024-03-02T04:05:51;0.70;;;0.70;;
68438;SDS011;55421;51.600;5.718;2024-03-02T04:08:18;1.50;;;0.50;;
68438;SDS011;55421;51.600;5.718;2024-03-02T04:10:44;1.10;;;0.60;;
68438;SDS011;55421;51.600;5.718;2024-03-02T04:13:11;0.70;;;0.40;;
68438;SDS011;55421;51.600;5.718;2024-03-02T04:15:37;1.00;;;0.50;;
68438;SDS011;55421;51.600;5.718;2024-03-02T04:18:04;0.50;;;0.50;;
68438;SDS011;55421;51.600;5.718;2024-03-02T04:20:31;0.80;;;0.40;;
68438;SDS011;55421;51.600;5.718;2024-03-02T04:22:57;1.40;;;0.40;;
68438;SDS011;55421;51.600;5.718;2024-03-02T04:25:24;0.60;;;0.30;;
68438;SDS011;55421;51.600;5.718;2024-03-02T04:27:50;0.70;;;0.50;;
68438;SDS011;55421;51.600;5.718;2024-03-02T04:30:16;2.00;;;0.40;;
68438;SDS011;55421;51.600;5.718;2024-03-02T04:32:43;0.40;;;0.40;;
68438;SDS011;55421;51.600;5.718;2024-03-02T04:35:12;1.00;;;0.40;;
68438;SDS011;55421;51.600;5.718;2024-03-02T04:37:39;0.80;;;0.50;;
68438;SDS011;55421;51.600;5.718;2024-03-02T04:40:05;1.50;;;0.30;;
68438;SDS011;55421;51.600;5.718;2024-03-02T04:42:35;1.30;;;0.40;;
68438;SDS011;55421;51.600;5.718;2024-03-02T04:45:02;0.40;;;0.40;;
68438;SDS011;55421;51.600;5.718;2024-03-02T04:47:29;0.30;;;0.30;;
68438;SDS011;55421;51.600;5.718;2024-03-02T04:49:55;0.40;;;0.30;;
68438;SDS011;55421;51.600;5.718;2024-03-02T04:52:22;1.80;;;0.40;;
68438;SDS011;55421;51.600;5.718;2024-03-02T04:54:48;0.40;;;0.30;;
68438;SDS011;55421;51.600;5.718;2024-03-02T04:57:33;1.00;;;0.40;;
68438;SDS011;55421;51.600;5.718;2024-03-02T05:00:00;0.70;;;0.40;;
68438;SDS011;55421;51.600;5.718;2024-03-02T05:02:27;0.50;;;0.50;;
68438;SDS011;55421;51.600;5.718;2024-03-02T05:04:53;3.50;;;0.50;;
68438;SDS011;55421;51.600;5.718;2024-03-02T05:07:20;2.40;;;0.40;;
68438;SDS011;55421;51.600;5.718;2024-03-02T05:09:46;3.40;;;0.40;;
68438;SDS011;55421;51.600;5.718;2024-03-02T05:12:14;0.40;;;0.40;;
68438;SDS011;55421;51.600;5.718;2024-03-02T05:14:59;0.40;;;0.40;;
68438;SDS011;55421;51.600;5.718;2024-03-02T05:17:26;0.30;;;0.30;;
68438;SDS011;55421;51.600;5.718;2024-03-02T05:19:52;2.20;;;0.80;;
68438;SDS011;55421;51.600;5.718;2024-03-02T05:22:19;0.90;;;0.50;;
68438;SDS011;55421;51.600;5.718;2024-03-02T05:24:45;0.50;;;0.50;;
68438;SDS011;55421;51.600;5.718;2024-03-02T05:27:12;0.50;;;0.50;;
68438;SDS011;55421;51.600;5.718;2024-03-02T05:29:38;0.40;;;0.40;;
68438;SDS011;55421;51.600;5.718;2024-03-02T05:32:05;0.40;;;0.40;;
68438;SDS011;55421;51.600;5.718;2024-03-02T05:34:31;1.90;;;0.50;;
68438;SDS011;55421;51.600;5.718;2024-03-02T05:36:59;0.80;;;0.40;;
68438;SDS011;55421;51.600;5.718;2024-03-02T05:39:25;0.40;;;0.40;;
68438;SDS011;55421;51.600;5.718;2024-03-02T05:41:52;0.70;;;0.70;;
68438;SDS011;55421;51.600;5.718;2024-03-02T05:44:18;0.40;;;0.40;;
68438;SDS011;55421;51.600;5.718;2024-03-02T05:46:45;1.80;;;0.50;;
68438;SDS011;55421;51.600;5.718;2024-03-02T05:49:12;0.80;;;0.30;;
68438;SDS011;55421;51.600;5.718;2024-03-02T05:51:39;0.20;;;0.20;;
68438;SDS011;55421;51.600;5.718;2024-03-02T05:54:06;0.80;;;0.80;;
68438;SDS011;55421;51.600;5.718;2024-03-02T05:56:32;1.70;;;0.40;;
68438;SDS011;55421;51.600;5.718;2024-03-02T05:58:59;0.50;;;0.50;;
68438;SDS011;55421;51.600;5.718;2024-03-02T06:01:34;0.60;;;0.50;;
68438;SDS011;55421;51.600;5.718;2024-03-02T06:04:00;1.20;;;0.50;;
68438;SDS011;55421;51.600;5.718;2024-03-02T06:06:27;1.30;;;0.60;;
68438;SDS011;55421;51.600;5.718;2024-03-02T06:08:53;1.20;;;0.50;;
68438;SDS011;55421;51.600;5.718;2024-03-02T06:11:20;0.70;;;0.50;;
68438;SDS011;55421;51.600;5.718;2024-03-02T06:13:46;0.90;;;0.50;;
68438;SDS011;55421;51.600;5.718;2024-03-02T06:16:13;0.80;;;0.60;;
68438;SDS011;55421;51.600;5.718;2024-03-02T06:18:39;2.50;;;0.50;;
68438;SDS011;55421;51.600;5.718;2024-03-02T06:21:06;1.10;;;0.40;;
68438;SDS011;55421;51.600;5.718;2024-03-02T06:23:32;0.50;;;0.50;;
68438;SDS011;55421;51.600;5.718;2024-03-02T06:25:59;1.60;;;0.50;;
68438;SDS011;55421;51.600;5.718;2024-03-02T06:28:25;1.20;;;0.70;;
68438;SDS011;55421;51.600;5.718;2024-03-02T06:30:52;0.70;;;0.70;;
68438;SDS011;55421;51.600;5.718;2024-03-02T06:33:19;2.10;;;0.70;;
68438;SDS011;55421;51.600;5.718;2024-03-02T06:35:45;0.50;;;0.50;;
68438;SDS011;55421;51.600;5.718;2024-03-02T06:38:12;1.30;;;0.70;;
68438;SDS011;55421;51.600;5.718;2024-03-02T06:40:38;1.90;;;0.60;;
68438;SDS011;55421;51.600;5.718;2024-03-02T06:43:06;1.00;;;0.60;;
68438;SDS011;55421;51.600;5.718;2024-03-02T06:45:32;1.70;;;0.50;;
68438;SDS011;55421;51.600;5.718;2024-03-02T06:48:00;0.50;;;0.50;;
68438;SDS011;55421;51.600;5.718;2024-03-02T06:50:27;0.90;;;0.60;;
68438;SDS011;55421;51.600;5.718;2024-03-02T06:52:54;0.80;;;0.60;;
68438;SDS011;55421;51.600;5.718;2024-03-02T06:55:22;1.10;;;0.60;;
68438;SDS011;55421;51.600;5.718;2024-03-02T06:57:51;2.00;;;0.60;;
68438;SDS011;55421;51.600;5.718;2024-03-02T07:00:18;1.90;;;0.80;;
68438;SDS011;55421;51.600;5.718;2024-03-02T07:02:46;0.90;;;0.90;;
68438;SDS011;55421;51.600;5.718;2024-03-02T07:05:13;1.00;;;0.70;;
68438;SDS011;55421;51.600;5.718;2024-03-02T07:07:39;0.90;;;0.70;;
68438;SDS011;55421;51.600;5.718;2024-03-02T07:10:06;0.70;;;0.70;;
68438;SDS011;55421;51.600;5.718;2024-03-02T07:12:36;3.20;;;0.90;;
68438;SDS011;55421;51.600;5.718;2024-03-02T07:15:03;1.60;;;0.80;;
68438;SDS011;55421;51.600;5.718;2024-03-02T07:17:31;2.70;;;0.70;;
68438;SDS011;55421;51.600;5.718;2024-03-02T07:19:58;1.20;;;0.70;;
68438;SDS011;55421;51.600;5.718;2024-03-02T07:22:24;0.80;;;0.70;;
68438;SDS011;55421;51.600;5.718;2024-03-02T07:24:51;2.20;;;0.70;;
68438;SDS011;55421;51.600;5.718;2024-03-02T07:27:17;1.20;;;0.70;;
68438;SDS011;55421;51.600;5.718;2024-03-02T07:29:44;3.70;;;0.80;;
68438;SDS011;55421;51.600;5.718;2024-03-02T07:32:10;0.70;;;0.50;;
68438;SDS011;55421;51.600;5.718;2024-03-02T07:34:37;3.60;;;0.90;;
68438;SDS011;55421;51.600;5.718;2024-03-02T07:37:06;1.70;;;0.60;;
68438;SDS011;55421;51.600;5.718;2024-03-02T07:39:32;1.80;;;0.90;;
68438;SDS011;55421;51.600;5.718;2024-03-02T07:42:00;2.50;;;0.80;;
68438;SDS011;55421;51.600;5.718;2024-03-02T07:44:26;2.60;;;1.70;;
68438;SDS011;55421;51.600;5.718;2024-03-02T07:46:53;1.70;;;0.60;;
68438;SDS011;55421;51.600;5.718;2024-03-02T07:49:20;2.20;;;0.80;;
68438;SDS011;55421;51.600;5.718;2024-03-02T07:51:46;1.20;;;0.80;;
68438;SDS011;55421;51.600;5.718;2024-03-02T07:54:13;1.50;;;0.70;;
68438;SDS011;55421;51.600;5.718;2024-03-02T07:56:39;1.30;;;0.60;;
68438;SDS011;55421;51.600;5.718;2024-03-02T07:59:06;1.40;;;0.70;;
68438;SDS011;55421;51.600;5.718;2024-03-02T08:01:33;1.60;;;0.70;;
68438;SDS011;55421;51.600;5.718;2024-03-02T08:04:01;0.70;;;0.60;;
68438;SDS011;55421;51.600;5.718;2024-03-02T08:06:30;2.50;;;0.60;;
68438;SDS011;55421;51.600;5.718;2024-03-02T08:08:58;2.60;;;0.80;;
68438;SDS011;55421;51.600;5.718;2024-03-02T08:11:25;4.20;;;0.60;;
68438;SDS011;55421;51.600;5.718;2024-03-02T08:13:57;2.00;;;0.60;;
68438;SDS011;55421;51.600;5.718;2024-03-02T08:16:24;2.00;;;0.70;;
68438;SDS011;55421;51.600;5.718;2024-03-02T08:18:52;3.20;;;0.70;;
68438;SDS011;55421;51.600;5.718;2024-03-02T08:21:19;2.10;;;0.70;;
68438;SDS011;55421;51.600;5.718;2024-03-02T08:23:45;0.80;;;0.60;;
68438;SDS011;55421;51.600;5.718;2024-03-02T08:26:12;5.10;;;1.30;;
68438;SDS011;55421;51.600;5.718;2024-03-02T08:28:40;4.10;;;0.80;;
68438;SDS011;55421;51.600;5.718;2024-03-02T08:31:09;6.50;;;1.00;;
68438;SDS011;55421;51.600;5.718;2024-03-02T08:33:36;0.90;;;0.80;;
68438;SDS011;55421;51.600;5.718;2024-03-02T08:36:03;2.60;;;0.60;;
68438;SDS011;55421;51.600;5.718;2024-03-02T08:38:30;3.50;;;0.70;;
68438;SDS011;55421;51.600;5.718;2024-03-02T08:40:56;2.90;;;1.30;;
68438;SDS011;55421;51.600;5.718;2024-03-02T08:43:23;1.90;;;0.60;;
68438;SDS011;55421;51.600;5.718;2024-03-02T08:45:50;1.30;;;0.70;;
68438;SDS011;55421;51.600;5.718;2024-03-02T08:48:17;1.60;;;0.60;;
68438;SDS011;55421;51.600;5.718;2024-03-02T08:50:44;4.30;;;0.90;;
68438;SDS011;55421;51.600;5.718;2024-03-02T08:53:10;4.60;;;0.80;;
68438;SDS011;55421;51.600;5.718;2024-03-02T08:55:37;2.40;;;0.90;;
68438;SDS011;55421;51.600;5.718;2024-03-02T08:58:03;2.80;;;0.70;;
68438;SDS011;55421;51.600;5.718;2024-03-02T09:00:30;3.00;;;0.70;;
68438;SDS011;55421;51.600;5.718;2024-03-02T09:02:56;3.90;;;0.70;;
68438;SDS011;55421;51.600;5.718;2024-03-02T09:05:23;1.30;;;0.60;;
68438;SDS011;55421;51.600;5.718;2024-03-02T09:07:49;2.70;;;0.80;;
68438;SDS011;55421;51.600;5.718;2024-03-02T09:10:16;1.30;;;0.50;;
68438;SDS011;55421;51.600;5.718;2024-03-02T09:12:42;1.60;;;1.10;;
68438;SDS011;55421;51.600;5.718;2024-03-02T09:15:09;2.80;;;0.70;;
68438;SDS011;55421;51.600;5.718;2024-03-02T09:17:35;1.90;;;0.70;;
68438;SDS011;55421;51.600;5.718;2024-03-02T09:20:02;4.30;;;0.50;;
68438;SDS011;55421;51.600;5.718;2024-03-02T09:22:30;1.10;;;0.60;;
68438;SDS011;55421;51.600;5.718;2024-03-02T09:24:56;3.10;;;0.50;;
68438;SDS011;55421;51.600;5.718;2024-03-02T09:27:23;2.10;;;0.70;;
68438;SDS011;55421;51.600;5.718;2024-03-02T09:29:50;4.50;;;0.70;;
68438;SDS011;55421;51.600;5.718;2024-03-02T09:32:16;2.60;;;0.70;;
68438;SDS011;55421;51.600;5.718;2024-03-02T09:34:42;2.40;;;0.60;;
68438;SDS011;55421;51.600;5.718;2024-03-02T09:37:09;4.00;;;0.80;;
68438;SDS011;55421;51.600;5.718;2024-03-02T09:39:36;2.50;;;0.60;;
68438;SDS011;55421;51.600;5.718;2024-03-02T09:42:04;1.10;;;0.50;;
68438;SDS011;55421;51.600;5.718;2024-03-02T09:44:31;2.10;;;0.70;;
68438;SDS011;55421;51.600;5.718;2024-03-02T09:46:59;2.80;;;0.70;;
68438;SDS011;55421;51.600;5.718;2024-03-02T09:49:26;1.70;;;0.70;;
68438;SDS011;55421;51.600;5.718;2024-03-02T09:51:53;1.50;;;0.50;;
68438;SDS011;55421;51.600;5.718;2024-03-02T09:54:20;3.00;;;0.70;;
68438;SDS011;55421;51.600;5.718;2024-03-02T09:56:47;2.50;;;0.70;;
68438;SDS011;55421;51.600;5.718;2024-03-02T09:59:13;1.20;;;0.60;;
68438;SDS011;55421;51.600;5.718;2024-03-02T10:02:00;2.70;;;0.80;;
68438;SDS011;55421;51.600;5.718;2024-03-02T10:04:29;0.70;;;0.40;;
68438;SDS011;55421;51.600;5.718;2024-03-02T10:07:14;2.90;;;0.70;;
68438;SDS011;55421;51.600;5.718;2024-03-02T10:09:44;2.00;;;0.70;;
68438;SDS011;55421;51.600;5.718;2024-03-02T10:12:13;0.90;;;0.70;;
68438;SDS011;55421;51.600;5.718;2024-03-02T10:14:43;2.40;;;1.20;;
68438;SDS011;55421;51.600;5.718;2024-03-02T10:17:12;4.20;;;0.80;;
68438;SDS011;55421;51.600;5.718;2024-03-02T10:19:40;1.60;;;0.70;;
68438;SDS011;55421;51.600;5.718;2024-03-02T10:22:08;6.20;;;1.20;;
68438;SDS011;55421;51.600;5.718;2024-03-02T10:24:40;2.60;;;0.70;;
68438;SDS011;55421;51.600;5.718;2024-03-02T10:27:15;4.70;;;0.80;;
68438;SDS011;55421;51.600;5.718;2024-03-02T10:29:47;2.50;;;0.70;;
68438;SDS011;55421;51.600;5.718;2024-03-02T10:32:15;2.50;;;0.90;;
68438;SDS011;55421;51.600;5.718;2024-03-02T10:34:44;2.30;;;0.70;;
68438;SDS011;55421;51.600;5.718;2024-03-02T10:37:12;2.40;;;0.70;;
68438;SDS011;55421;51.600;5.718;2024-03-02T10:39:39;2.20;;;0.80;;
68438;SDS011;55421;51.600;5.718;2024-03-02T10:42:06;2.10;;;0.70;;
68438;SDS011;55421;51.600;5.718;2024-03-02T10:44:34;2.40;;;1.30;;
68438;SDS011;55421;51.600;5.718;2024-03-02T10:47:02;4.00;;;0.80;;
68438;SDS011;55421;51.600;5.718;2024-03-02T10:49:31;1.80;;;0.90;;
68438;SDS011;55421;51.600;5.718;2024-03-02T10:51:59;2.50;;;1.00;;
68438;SDS011;55421;51.600;5.718;2024-03-02T10:54:26;1.30;;;0.80;;
68438;SDS011;55421;51.600;5.718;2024-03-02T10:56:58;4.90;;;1.20;;
68438;SDS011;55421;51.600;5.718;2024-03-02T11:01:58;0.90;;;0.70;;
68438;SDS011;55421;51.600;5.718;2024-03-02T11:04:28;2.50;;;0.80;;
68438;SDS011;55421;51.600;5.718;2024-03-02T11:07:06;2.30;;;0.70;;
68438;SDS011;55421;51.600;5.718;2024-03-02T11:09:41;4.60;;;1.50;;
68438;SDS011;55421;51.600;5.718;2024-03-02T11:12:25;2.10;;;0.60;;
68438;SDS011;55421;51.600;5.718;2024-03-02T11:14:56;2.50;;;0.80;;
68438;SDS011;55421;51.600;5.718;2024-03-02T11:17:23;2.10;;;0.60;;
68438;SDS011;55421;51.600;5.718;2024-03-02T11:19:51;1.80;;;0.70;;
68438;SDS011;55421;51.600;5.718;2024-03-02T11:22:19;2.60;;;0.90;;
68438;SDS011;55421;51.600;5.718;2024-03-02T11:24:50;3.90;;;1.00;;
68438;SDS011;55421;51.600;5.718;2024-03-02T11:33:00;1.50;;;0.80;;
68438;SDS011;55421;51.600;5.718;2024-03-02T11:35:38;1.90;;;1.00;;
68438;SDS011;55421;51.600;5.718;2024-03-02T11:38:14;3.30;;;0.80;;
68438;SDS011;55421;51.600;5.718;2024-03-02T11:40:41;5.10;;;0.90;;
68438;SDS011;55421;51.600;5.718;2024-03-02T11:43:08;1.30;;;0.70;;
68438;SDS011;55421;51.600;5.718;2024-03-02T11:45:36;1.50;;;0.70;;
68438;SDS011;55421;51.600;5.718;2024-03-02T11:50:36;3.00;;;0.80;;
68438;SDS011;55421;51.600;5.718;2024-03-02T11:53:08;2.00;;;0.80;;
68438;SDS011;55421;51.600;5.718;2024-03-02T11:55:37;1.50;;;0.90;;
68438;SDS011;55421;51.600;5.718;2024-03-02T11:58:08;3.70;;;1.10;;
68438;SDS011;55421;51.600;5.718;2024-03-02T12:00:35;2.00;;;1.00;;
68438;SDS011;55421;51.600;5.718;2024-03-02T12:03:04;2.50;;;1.10;;
68438;SDS011;55421;51.600;5.718;2024-03-02T12:05:34;2.20;;;1.10;;
68438;SDS011;55421;51.600;5.718;2024-03-02T12:08:06;3.60;;;1.10;;
68438;SDS011;55421;51.600;5.718;2024-03-02T12:10:35;3.40;;;1.20;;
68438;SDS011;55421;51.600;5.718;2024-03-02T12:13:04;1.60;;;0.90;;
68438;SDS011;55421;51.600;5.718;2024-03-02T12:15:38;1.30;;;1.00;;
68438;SDS011;55421;51.600;5.718;2024-03-02T12:18:06;2.70;;;1.20;;
68438;SDS011;55421;51.600;5.718;2024-03-02T12:20:33;2.00;;;1.00;;
68438;SDS011;55421;51.600;5.718;2024-03-02T12:23:02;4.00;;;0.90;;
68438;SDS011;55421;51.600;5.718;2024-03-02T12:25:31;4.10;;;1.00;;
68438;SDS011;55421;51.600;5.718;2024-03-02T12:28:00;2.30;;;1.10;;
68438;SDS011;55421;51.600;5.718;2024-03-02T12:30:29;1.30;;;1.00;;
68438;SDS011;55421;51.600;5.718;2024-03-02T12:32:57;3.10;;;0.90;;
68438;SDS011;55421;51.600;5.718;2024-03-02T12:35:24;3.40;;;1.00;;
68438;SDS011;55421;51.600;5.718;2024-03-02T12:37:53;1.30;;;0.70;;
68438;SDS011;55421;51.600;5.718;2024-03-02T12:40:21;2.00;;;0.80;;
68438;SDS011;55421;51.600;5.718;2024-03-02T12:42:49;5.50;;;1.40;;
68438;SDS011;55421;51.600;5.718;2024-03-02T12:45:17;3.60;;;1.40;;
68438;SDS011;55421;51.600;5.718;2024-03-02T12:47:52;4.30;;;1.10;;
68438;SDS011;55421;51.600;5.718;2024-03-02T12:50:19;1.40;;;0.80;;
68438;SDS011;55421;51.600;5.718;2024-03-02T12:52:53;1.70;;;0.80;;
68438;SDS011;55421;51.600;5.718;2024-03-02T12:55:21;1.30;;;0.60;;
68438;SDS011;55421;51.600;5.718;2024-03-02T12:57:50;1.50;;;0.70;;
68438;SDS011;55421;51.600;5.718;2024-03-02T13:00:19;2.20;;;1.10;;
68438;SDS011;55421;51.600;5.718;2024-03-02T13:02:47;3.40;;;1.10;;
68438;SDS011;55421;51.600;5.718;2024-03-02T13:05:15;2.60;;;0.70;;
68438;SDS011;55421;51.600;5.718;2024-03-02T13:07:41;2.30;;;1.20;;
68438;SDS011;55421;51.600;5.718;2024-03-02T13:10:08;3.70;;;0.80;;
68438;SDS011;55421;51.600;5.718;2024-03-02T13:12:35;3.20;;;1.10;;
68438;SDS011;55421;51.600;5.718;2024-03-02T13:15:03;1.60;;;0.70;;
68438;SDS011;55421;51.600;5.718;2024-03-02T13:17:31;2.30;;;0.70;;
68438;SDS011;55421;51.600;5.718;2024-03-02T13:20:01;1.10;;;0.40;;
68438;SDS011;55421;51.600;5.718;2024-03-02T13:22:30;3.20;;;0.90;;
68438;SDS011;55421;51.600;5.718;2024-03-02T13:24:56;1.90;;;0.80;;
68438;SDS011;55421;51.600;5.718;2024-03-02T13:27:23;2.60;;;0.70;;
68438;SDS011;55421;51.600;5.718;2024-03-02T13:29:50;1.70;;;0.70;;
68438;SDS011;55421;51.600;5.718;2024-03-02T13:32:17;2.40;;;1.10;;
68438;SDS011;55421;51.600;5.718;2024-03-02T13:34:44;2.20;;;0.90;;
68438;SDS011;55421;51.600;5.718;2024-03-02T13:37:10;1.60;;;0.80;;
68438;SDS011;55421;51.600;5.718;2024-03-02T13:39:37;1.20;;;0.60;;
68438;SDS011;55421;51.600;5.718;2024-03-02T13:42:08;1.70;;;0.80;;
68438;SDS011;55421;51.600;5.718;2024-03-02T13:44:36;4.10;;;0.90;;
68438;SDS011;55421;51.600;5.718;2024-03-02T13:47:04;3.70;;;1.00;;
68438;SDS011;55421;51.600;5.718;2024-03-02T13:49:31;3.50;;;1.00;;
68438;SDS011;55421;51.600;5.718;2024-03-02T13:52:03;4.70;;;0.90;;
68438;SDS011;55421;51.600;5.718;2024-03-02T13:54:37;2.80;;;0.70;;
68438;SDS011;55421;51.600;5.718;2024-03-02T13:57:05;2.00;;;0.80;;
68438;SDS011;55421;51.600;5.718;2024-03-02T13:59:33;2.80;;;0.70;;
68438;SDS011;55421;51.600;5.718;2024-03-02T14:02:04;1.20;;;0.80;;
68438;SDS011;55421;51.600;5.718;2024-03-02T14:04:33;1.90;;;1.10;;
68438;SDS011;55421;51.600;5.718;2024-03-02T14:07:01;2.40;;;0.70;;
68438;SDS011;55421;51.600;5.718;2024-03-02T14:09:28;1.80;;;0.70;;
68438;SDS011;55421;51.600;5.718;2024-03-02T14:11:55;3.00;;;0.60;;
68438;SDS011;55421;51.600;5.718;2024-03-02T14:14:23;4.40;;;0.90;;
68438;SDS011;55421;51.600;5.718;2024-03-02T14:16:50;3.80;;;1.00;;
68438;SDS011;55421;51.600;5.718;2024-03-02T14:19:17;1.20;;;0.60;;
68438;SDS011;55421;51.600;5.718;2024-03-02T14:21:44;1.40;;;0.70;;
68438;SDS011;55421;51.600;5.718;2024-03-02T14:24:10;2.10;;;0.60;;
68438;SDS011;55421;51.600;5.718;2024-03-02T14:26:37;2.50;;;0.80;;
68438;SDS011;55421;51.600;5.718;2024-03-02T14:29:04;2.20;;;0.80;;
68438;SDS011;55421;51.600;5.718;2024-03-02T14:31:31;3.50;;;0.70;;
68438;SDS011;55421;51.600;5.718;2024-03-02T14:33:59;1.00;;;0.80;;
68438;SDS011;55421;51.600;5.718;2024-03-02T14:36:27;1.80;;;0.70;;
68438;SDS011;55421;51.600;5.718;2024-03-02T14:38:54;3.00;;;0.80;;
68438;SDS011;55421;51.600;5.718;2024-03-02T14:41:21;3.30;;;0.90;;
68438;SDS011;55421;51.600;5.718;2024-03-02T14:43:50;2.70;;;1.10;;
68438;SDS011;55421;51.600;5.718;2024-03-02T14:46:17;2.70;;;0.90;;
68438;SDS011;55421;51.600;5.718;2024-03-02T14:48:45;2.50;;;0.80;;
68438;SDS011;55421;51.600;5.718;2024-03-02T14:51:13;3.70;;;0.90;;
68438;SDS011;55421;51.600;5.718;2024-03-02T14:53:40;2.80;;;0.90;;
68438;SDS011;55421;51.600;5.718;2024-03-02T14:56:07;2.10;;;0.90;;
68438;SDS011;55421;51.600;5.718;2024-03-02T14:58:33;2.10;;;0.90;;
68438;SDS011;55421;51.600;5.718;2024-03-02T15:01:02;1.50;;;0.70;;
68438;SDS011;55421;51.600;5.718;2024-03-02T15:03:30;2.40;;;1.00;;